createdAt,value
2019-04-01T00:00:26.838Z,10.40
2019-04-01T00:01:26.790Z,9.20
2019-04-01T00:02:26.791Z,12.10
2019-04-01T00:03:26.763Z,9.90
2019-04-01T00:04:26.760Z,5.70
2019-04-01T00:05:26.743Z,9.90
2019-04-01T00:06:26.758Z,9.50
2019-04-01T00:07:26.761Z,9.50
2019-04-01T00:08:26.740Z,8.10
2019-04-01T00:09:26.705Z,6.90
2019-04-01T00:10:26.689Z,6.50
2019-04-01T00:11:26.748Z,10.60
2019-04-01T00:12:26.692Z,9.40
2019-04-01T00:13:26.662Z,6.90
2019-04-01T00:14:26.686Z,7.40
2019-04-01T00:15:26.647Z,6.90
2019-04-01T00:16:26.633Z,7.50
2019-04-01T00:17:26.660Z,11.20
2019-04-01T00:18:26.613Z,7.30
2019-04-01T00:19:26.596Z,7.70
2019-04-01T00:20:26.582Z,8.20
2019-04-01T00:21:26.582Z,7.10
2019-04-01T00:22:26.604Z,6.30
2019-04-01T00:23:26.574Z,9.70
2019-04-01T00:24:26.561Z,8.20
2019-04-01T00:25:26.534Z,6.80
2019-04-01T00:26:26.524Z,6.40
2019-04-01T00:27:26.506Z,8.00
2019-04-01T00:28:26.495Z,8.80
2019-04-01T00:29:26.524Z,6.40
2019-04-01T00:30:26.502Z,6.10
2019-04-01T00:31:26.471Z,7.40
2019-04-01T00:32:26.462Z,6.60
2019-04-01T00:33:26.453Z,7.50
2019-04-01T00:34:26.438Z,6.40
2019-04-01T00:35:26.462Z,7.00
2019-04-01T00:36:26.414Z,5.90
2019-04-01T00:37:26.411Z,6.80
2019-04-01T00:38:26.393Z,7.90
2019-04-01T00:39:26.389Z,7.30
2019-04-01T00:40:26.407Z,7.60
2019-04-01T00:41:26.366Z,5.90
2019-04-01T00:42:26.367Z,7.40
2019-04-01T00:43:26.344Z,6.70
2019-04-01T00:44:26.334Z,5.30
2019-04-01T00:45:26.324Z,7.80
2019-04-01T00:46:26.346Z,8.60
2019-04-01T00:47:26.317Z,7.10
2019-04-01T00:48:26.293Z,6.60
2019-04-01T00:49:26.276Z,8.10
2019-04-01T00:50:26.270Z,8.40
2019-04-01T00:51:26.258Z,7.20
2019-04-01T00:52:26.286Z,6.40
2019-04-01T00:53:26.321Z,8.70
2019-04-01T00:54:26.227Z,5.90
2019-04-01T00:55:26.214Z,8.90
2019-04-01T00:56:26.201Z,7.00
2019-04-01T00:57:26.229Z,7.50
2019-04-01T00:58:26.179Z,8.00
2019-04-01T00:59:26.229Z,7.30
2019-04-01T01:00:26.163Z,7.80
2019-04-01T01:01:26.149Z,6.90
2019-04-01T01:02:26.139Z,6.90
2019-04-01T01:03:26.158Z,6.30
2019-04-01T01:04:26.124Z,7.10
2019-04-01T01:05:26.130Z,7.70
2019-04-01T01:06:26.116Z,6.40
2019-04-01T01:07:26.090Z,7.70
2019-04-01T01:08:26.097Z,8.30
2019-04-01T01:09:26.072Z,5.80
2019-04-01T01:10:26.064Z,7.30
2019-04-01T01:11:26.051Z,7.70
2019-04-01T01:12:26.037Z,8.00
2019-04-01T01:13:26.030Z,8.40
2019-04-01T01:14:26.052Z,9.10
2019-04-01T01:15:25.999Z,4.40
2019-04-01T01:16:25.995Z,6.20
2019-04-01T01:17:25.992Z,7.90
2019-04-01T01:18:25.967Z,6.50
2019-04-01T01:19:25.963Z,10.30
2019-04-01T01:20:25.981Z,7.20
2019-04-01T01:21:25.943Z,8.60
2019-04-01T01:22:25.943Z,7.50
2019-04-01T01:23:25.926Z,6.80
2019-04-01T01:24:25.909Z,8.10
2019-04-01T01:25:25.896Z,7.20
2019-04-01T01:26:25.913Z,6.90
2019-04-01T01:27:25.876Z,6.30
2019-04-01T01:28:25.863Z,9.70
2019-04-01T01:29:25.871Z,6.00
2019-04-01T01:30:25.840Z,7.90
2019-04-01T01:31:25.835Z,8.10
2019-04-01T01:32:25.844Z,8.50
2019-04-01T01:33:25.809Z,8.50
2019-04-01T01:34:25.806Z,7.50
2019-04-01T01:35:25.785Z,6.60
2019-04-01T01:36:25.792Z,7.30
2019-04-01T01:37:25.795Z,7.80
2019-04-01T01:38:25.764Z,7.30
2019-04-01T01:39:25.747Z,6.70
2019-04-01T01:40:25.741Z,6.30
2019-04-01T01:41:25.733Z,7.20
2019-04-01T01:42:25.712Z,8.00
2019-04-01T01:43:25.732Z,6.60
2019-04-01T01:44:25.723Z,7.50
2019-04-01T01:45:25.691Z,6.70
2019-04-01T01:46:25.680Z,6.50
2019-04-01T01:47:25.664Z,6.50
2019-04-01T01:48:25.654Z,8.60
2019-04-01T01:49:25.724Z,8.20
2019-04-01T01:50:25.625Z,7.80
2019-04-01T01:51:25.647Z,6.90
2019-04-01T01:52:25.613Z,8.60
2019-04-01T01:53:25.605Z,5.80
2019-04-01T01:54:25.586Z,7.50
2019-04-01T01:55:25.647Z,7.30
2019-04-01T01:56:25.574Z,7.70
2019-04-01T01:57:25.571Z,9.40
2019-04-01T01:58:25.547Z,8.10
2019-04-01T01:59:25.539Z,7.50
2019-04-01T02:00:25.524Z,6.70
2019-04-01T02:01:25.544Z,6.90
2019-04-01T02:02:25.522Z,8.50
2019-04-01T02:03:25.494Z,8.30
2019-04-01T02:04:25.502Z,8.90
2019-04-01T02:05:25.473Z,8.40
2019-04-01T02:06:25.461Z,7.00
2019-04-01T02:07:25.499Z,8.30
2019-04-01T02:08:25.456Z,6.60
2019-04-01T02:09:25.432Z,9.90
2019-04-01T02:10:25.425Z,8.30
2019-04-01T02:11:25.402Z,7.40
2019-04-01T02:12:25.397Z,7.10
2019-04-01T02:13:25.416Z,7.50
2019-04-01T02:14:25.381Z,7.80
2019-04-01T02:15:25.375Z,8.10
2019-04-01T02:16:25.358Z,8.40
2019-04-01T02:17:25.370Z,6.00
2019-04-01T02:18:25.330Z,7.40
2019-04-01T02:19:25.351Z,8.30
2019-04-01T02:20:25.328Z,7.10
2019-04-01T02:21:25.303Z,7.70
2019-04-01T02:22:25.295Z,7.80
2019-04-01T02:23:25.308Z,7.20
2019-04-01T02:24:25.266Z,7.00
2019-04-01T02:25:25.269Z,8.60
2019-04-01T02:26:25.243Z,8.30
2019-04-01T02:27:25.231Z,10.00
2019-04-01T02:28:25.219Z,11.20
2019-04-01T02:29:25.222Z,10.80
2019-04-01T02:30:25.204Z,8.50
2019-04-01T02:31:25.185Z,8.10
2019-04-01T02:32:25.197Z,7.30
2019-04-01T02:33:25.163Z,9.10
2019-04-01T02:34:25.203Z,9.00
2019-04-01T02:35:25.143Z,9.20
2019-04-01T02:36:25.134Z,7.90
2019-04-01T02:37:25.143Z,7.60
2019-04-01T02:38:25.114Z,6.60
2019-04-01T02:39:25.111Z,8.30
2019-04-01T02:40:25.127Z,7.20
2019-04-01T02:41:25.082Z,9.20
2019-04-01T02:42:25.071Z,9.50
2019-04-01T02:43:25.083Z,7.60
2019-04-01T02:44:25.054Z,6.70
2019-04-01T02:45:25.063Z,7.90
2019-04-01T02:46:25.059Z,6.90
2019-04-01T02:47:25.017Z,7.80
2019-04-01T02:48:25.031Z,5.90
2019-04-01T02:49:25.001Z,7.30
2019-04-01T02:50:24.980Z,7.00
2019-04-01T02:51:24.971Z,8.70
2019-04-01T02:52:24.996Z,6.60
2019-04-01T02:53:24.956Z,7.00
2019-04-01T02:54:24.947Z,10.10
2019-04-01T02:55:24.937Z,6.40
2019-04-01T02:56:24.920Z,6.80
2019-04-01T02:57:24.915Z,8.40
2019-04-01T02:58:24.933Z,6.80
2019-04-01T02:59:24.909Z,7.10
2019-04-01T03:00:24.877Z,7.10
2019-04-01T03:01:24.865Z,9.70
2019-04-01T03:02:24.873Z,7.80
2019-04-01T03:03:24.956Z,11.00
2019-04-01T03:04:24.856Z,6.90
2019-04-01T03:05:24.820Z,7.60
2019-04-01T03:06:24.814Z,8.20
2019-04-01T03:07:24.809Z,8.30
2019-04-01T03:08:24.782Z,7.40
2019-04-01T03:09:24.788Z,8.50
2019-04-01T03:10:24.798Z,7.50
2019-04-01T03:11:24.766Z,8.60
2019-04-01T03:12:24.747Z,7.80
2019-04-01T03:13:24.731Z,6.70
2019-04-01T03:14:24.730Z,6.90
2019-04-01T03:15:24.705Z,8.60
2019-04-01T03:16:24.751Z,8.90
2019-04-01T03:17:24.692Z,10.90
2019-04-01T03:18:24.692Z,7.70
2019-04-01T03:19:24.665Z,8.80
2019-04-01T03:20:24.664Z,9.60
2019-04-01T03:21:24.646Z,9.20
2019-04-01T03:22:24.645Z,7.70
2019-04-01T03:23:24.637Z,8.20
2019-04-01T03:24:24.610Z,9.20
2019-04-01T03:25:24.611Z,8.50
2019-04-01T03:26:24.598Z,5.50
2019-04-01T03:27:24.610Z,8.40
2019-04-01T03:28:24.577Z,7.60
2019-04-01T03:29:24.656Z,7.50
2019-04-01T03:30:24.552Z,9.40
2019-04-01T03:31:24.534Z,8.40
2019-04-01T03:32:24.530Z,7.30
2019-04-01T03:33:24.549Z,6.60
2019-04-01T03:34:24.503Z,9.10
2019-04-01T03:35:24.500Z,7.40
2019-04-01T03:36:24.485Z,8.60
2019-04-01T03:37:24.471Z,6.40
2019-04-01T03:38:27.780Z,7.60
2019-04-01T03:39:24.475Z,9.30
2019-04-01T03:40:24.454Z,8.80
2019-04-01T03:41:24.430Z,8.30
2019-04-01T03:42:24.418Z,8.40
2019-04-01T03:43:24.414Z,7.70
2019-04-01T03:44:24.395Z,7.50
2019-04-01T03:45:24.450Z,7.80
2019-04-01T03:46:24.372Z,9.10
2019-04-01T03:47:24.370Z,8.90
2019-04-01T03:48:24.357Z,7.80
2019-04-01T03:49:24.348Z,7.70
2019-04-01T03:50:24.333Z,6.30
2019-04-01T03:51:24.344Z,6.80
2019-04-01T03:52:24.305Z,7.70
2019-04-01T03:53:24.301Z,8.90
2019-04-01T03:54:24.294Z,9.30
2019-04-01T03:55:24.433Z,7.90
2019-04-01T03:56:24.281Z,8.00
2019-04-01T03:57:24.274Z,9.00
2019-04-01T03:58:24.245Z,11.40
2019-04-01T03:59:24.234Z,6.80
2019-04-01T04:00:24.240Z,7.10
2019-04-01T04:01:24.245Z,6.90
2019-04-01T04:02:24.233Z,7.30
2019-04-01T04:03:24.219Z,6.60
2019-04-01T04:04:24.176Z,7.90
2019-04-01T04:05:24.169Z,7.90
2019-04-01T04:06:24.178Z,6.50
2019-04-01T04:07:24.157Z,7.60
2019-04-01T04:08:24.144Z,10.40
2019-04-01T04:09:24.162Z,8.00
2019-04-01T04:10:24.117Z,11.20
2019-04-01T04:11:24.105Z,7.20
2019-04-01T04:12:24.092Z,7.70
2019-04-01T04:13:24.089Z,9.30
2019-04-01T04:14:24.074Z,7.20
2019-04-01T04:15:24.092Z,7.10
2019-04-01T04:16:24.061Z,8.90
2019-04-01T04:17:24.044Z,7.60
2019-04-01T04:18:24.036Z,8.10
2019-04-01T04:19:24.019Z,8.20
2019-04-01T04:20:24.043Z,9.30
2019-04-01T04:21:24.517Z,8.60
2019-04-01T04:22:23.995Z,9.20
2019-04-01T04:23:23.974Z,8.30
2019-04-01T04:24:23.970Z,9.70
2019-04-01T04:25:23.959Z,8.90
2019-04-01T04:26:23.997Z,8.50
2019-04-01T04:27:23.928Z,6.30
2019-04-01T04:28:23.921Z,9.30
2019-04-01T04:29:23.910Z,8.10
2019-04-01T04:30:24.044Z,9.20
2019-04-01T04:31:23.893Z,8.40
2019-04-01T04:32:23.906Z,8.60
2019-04-01T04:33:23.859Z,8.90
2019-04-01T04:34:23.859Z,9.60
2019-04-01T04:35:23.852Z,8.90
2019-04-01T04:36:23.831Z,9.10
2019-04-01T04:37:23.824Z,8.30
2019-04-01T04:38:23.835Z,7.60
2019-04-01T04:39:23.802Z,11.10
2019-04-01T04:40:23.805Z,8.00
2019-04-01T04:41:23.816Z,12.20
2019-04-01T04:42:23.793Z,7.80
2019-04-01T04:43:23.758Z,9.30
2019-04-01T04:44:23.777Z,7.50
2019-04-01T04:45:23.738Z,9.40
2019-04-01T04:46:23.729Z,9.40
2019-04-01T04:47:23.740Z,10.70
2019-04-01T04:48:23.713Z,10.50
2019-04-01T04:49:23.694Z,11.30
2019-04-01T04:50:23.703Z,9.30
2019-04-01T04:51:23.666Z,9.50
2019-04-01T04:52:23.655Z,9.40
2019-04-01T04:53:23.692Z,9.60
2019-04-01T04:54:23.659Z,10.70
2019-04-01T04:55:23.626Z,7.90
2019-04-01T04:56:23.646Z,8.10
2019-04-01T04:57:23.609Z,8.00
2019-04-01T04:58:23.598Z,9.20
2019-04-01T04:59:23.584Z,6.90
2019-04-01T05:00:23.575Z,8.70
2019-04-01T05:01:23.595Z,11.80
2019-04-01T05:02:24.753Z,9.00
2019-04-01T05:03:23.556Z,7.80
2019-04-01T05:04:23.537Z,8.40
2019-04-01T05:05:23.530Z,8.70
2019-04-01T05:06:23.556Z,10.50
2019-04-01T05:07:23.529Z,9.80
2019-04-01T05:08:23.485Z,8.30
2019-04-01T05:09:23.474Z,10.80
2019-04-01T05:10:23.524Z,9.20
2019-04-01T05:11:23.475Z,9.30
2019-04-01T05:12:23.439Z,11.30
2019-04-01T05:13:23.454Z,7.40
2019-04-01T05:14:23.421Z,8.70
2019-04-01T05:15:23.413Z,8.80
2019-04-01T05:16:23.397Z,11.80
2019-04-01T05:17:23.389Z,10.30
2019-04-01T05:18:23.424Z,9.40
2019-04-01T05:19:23.368Z,7.90
2019-04-01T05:20:23.355Z,8.80
2019-04-01T05:21:23.389Z,11.40
2019-04-01T05:22:23.329Z,9.90
2019-04-01T05:23:23.317Z,8.10
2019-04-01T05:24:23.331Z,9.50
2019-04-01T05:25:23.295Z,9.60
2019-04-01T05:26:23.343Z,10.70
2019-04-01T05:27:23.276Z,8.70
2019-04-01T05:28:23.264Z,9.40
2019-04-01T05:29:23.285Z,11.80
2019-04-01T05:30:23.242Z,12.30
2019-04-01T05:31:23.248Z,13.30
2019-04-01T05:32:23.227Z,10.60
2019-04-01T05:33:23.210Z,9.00
2019-04-01T05:34:23.219Z,10.00
2019-04-01T05:35:23.215Z,11.70
2019-04-01T05:36:23.180Z,11.90
2019-04-01T05:37:23.177Z,9.90
2019-04-01T05:38:23.165Z,9.90
2019-04-01T05:39:23.168Z,9.50
2019-04-01T05:40:23.133Z,10.60
2019-04-01T05:41:23.143Z,10.70
2019-04-01T05:42:23.119Z,11.50
2019-04-01T05:43:23.110Z,10.30
2019-04-01T05:44:23.127Z,11.70
2019-04-01T05:45:23.095Z,9.40
2019-04-01T05:46:23.377Z,10.70
2019-04-01T05:47:23.071Z,10.80
2019-04-01T05:48:23.052Z,10.70
2019-04-01T05:49:23.043Z,10.80
2019-04-01T05:50:23.109Z,9.00
2019-04-01T05:51:23.024Z,9.20
2019-04-01T05:52:23.029Z,8.70
2019-04-01T05:53:22.999Z,11.60
2019-04-01T05:54:22.986Z,11.30
2019-04-01T05:55:22.982Z,10.30
2019-04-01T05:56:22.962Z,8.50
2019-04-01T05:57:22.958Z,9.90
2019-04-01T05:58:22.978Z,11.20
2019-04-01T05:59:22.944Z,14.30
2019-04-01T06:00:22.929Z,10.80
2019-04-01T06:01:22.927Z,8.20
2019-04-01T06:02:22.921Z,9.60
2019-04-01T06:03:22.897Z,12.10
2019-04-01T06:04:22.901Z,10.30
2019-04-01T06:05:22.871Z,11.10
2019-04-01T06:06:22.857Z,12.00
2019-04-01T06:07:22.846Z,11.00
2019-04-01T06:08:22.873Z,11.70
2019-04-01T06:09:22.826Z,10.90
2019-04-01T06:10:22.871Z,11.10
2019-04-01T06:11:22.797Z,9.00
2019-04-01T06:12:24.300Z,9.90
2019-04-01T06:13:22.779Z,9.50
2019-04-01T06:14:22.778Z,9.80
2019-04-01T06:15:22.753Z,10.30
2019-04-01T06:16:22.801Z,11.20
2019-04-01T06:17:22.735Z,10.80
2019-04-01T06:18:22.725Z,9.70
2019-04-01T06:19:22.709Z,9.40
2019-04-01T06:20:22.718Z,12.30
2019-04-01T06:21:22.689Z,9.10
2019-04-01T06:22:22.776Z,8.30
2019-04-01T06:23:22.670Z,10.40
2019-04-01T06:24:24.689Z,11.80
2019-04-01T06:25:22.657Z,9.80
2019-04-01T06:26:22.685Z,9.80
2019-04-01T06:27:22.988Z,8.70
2019-04-01T06:28:22.614Z,10.80
2019-04-01T06:29:22.615Z,11.40
2019-04-01T06:30:22.594Z,9.00
2019-04-01T06:31:22.591Z,8.40
2019-04-01T06:32:22.601Z,8.40
2019-04-01T06:33:22.580Z,9.90
2019-04-01T06:34:22.564Z,8.80
2019-04-01T06:35:22.535Z,10.70
2019-04-01T06:36:22.524Z,8.20
2019-04-01T06:37:22.518Z,8.10
2019-04-01T06:38:22.540Z,9.80
2019-04-01T06:39:22.584Z,9.20
2019-04-01T06:40:22.660Z,9.30
2019-04-01T06:41:22.484Z,11.00
2019-04-01T06:42:22.466Z,9.50
2019-04-01T06:43:22.501Z,8.40
2019-04-01T06:44:22.505Z,9.50
2019-04-01T06:45:22.546Z,10.50
2019-04-01T06:46:22.419Z,9.40
2019-04-01T06:47:22.409Z,8.50
2019-04-01T06:48:22.402Z,10.00
2019-04-01T06:49:22.466Z,11.30
2019-04-01T06:50:22.377Z,8.90
2019-04-01T06:51:22.365Z,10.80
2019-04-01T06:52:22.354Z,9.20
2019-04-01T06:53:22.344Z,9.70
2019-04-01T06:54:22.477Z,10.50
2019-04-01T06:55:22.365Z,11.00
2019-04-01T06:56:22.314Z,9.90
2019-04-01T06:57:22.315Z,9.30
2019-04-01T06:58:22.300Z,10.90
2019-04-01T06:59:22.276Z,9.60
2019-04-01T07:00:22.274Z,7.90
2019-04-01T07:01:22.266Z,12.70
2019-04-01T07:02:22.248Z,15.70
2019-04-01T07:03:22.311Z,18.20
2019-04-01T07:04:22.231Z,12.70
2019-04-01T07:05:22.246Z,16.90
2019-04-01T07:06:22.212Z,14.70
2019-04-01T07:07:22.228Z,12.10
2019-04-01T07:08:22.299Z,10.90
2019-04-01T07:09:22.175Z,10.10
2019-04-01T07:10:24.906Z,9.10
2019-04-01T07:11:22.213Z,10.00
2019-04-01T07:12:22.145Z,12.40
2019-04-01T07:13:22.135Z,9.90
2019-04-01T07:14:22.114Z,10.30
2019-04-01T07:15:22.109Z,8.90
2019-04-01T07:16:22.094Z,8.30
2019-04-01T07:17:22.149Z,10.30
2019-04-01T07:18:22.072Z,10.10
2019-04-01T07:19:22.059Z,9.20
2019-04-01T07:20:22.044Z,10.20
2019-04-01T07:21:22.038Z,9.70
2019-04-01T07:22:22.083Z,9.70
2019-04-01T07:23:22.038Z,8.80
2019-04-01T07:24:22.008Z,11.40
2019-04-01T07:25:21.989Z,13.20
2019-04-01T07:26:21.999Z,11.80
2019-04-01T07:27:21.967Z,11.10
2019-04-01T07:28:21.968Z,8.90
2019-04-01T07:29:21.981Z,9.60
2019-04-01T07:30:21.939Z,8.10
2019-04-01T07:31:21.932Z,12.00
2019-04-01T07:32:21.913Z,9.70
2019-04-01T07:33:21.914Z,9.10
2019-04-01T07:34:21.893Z,8.20
2019-04-01T07:35:21.915Z,10.10
2019-04-01T07:36:21.871Z,9.50
2019-04-01T07:37:21.863Z,9.50
2019-04-01T07:38:21.851Z,7.40
2019-04-01T07:39:21.845Z,10.10
2019-04-01T07:40:21.842Z,7.40
2019-04-01T07:41:21.845Z,6.70
2019-04-01T07:42:21.811Z,7.40
2019-04-01T07:43:21.800Z,9.30
2019-04-01T07:44:21.790Z,9.90
2019-04-01T07:45:21.845Z,10.60
2019-04-01T07:46:21.765Z,8.20
2019-04-01T07:47:21.765Z,7.20
2019-04-01T07:48:21.766Z,11.00
2019-04-01T07:49:21.828Z,10.60
2019-04-01T07:50:21.754Z,9.00
2019-04-01T07:51:21.724Z,9.00
2019-04-01T07:52:21.725Z,8.30
2019-04-01T07:53:21.695Z,10.60
2019-04-01T07:54:21.681Z,9.20
2019-04-01T07:55:21.670Z,11.10
2019-04-01T07:56:21.661Z,9.70
2019-04-01T07:57:21.648Z,8.60
2019-04-01T07:58:21.669Z,9.00
2019-04-01T07:59:21.632Z,6.10
2019-04-01T08:00:21.613Z,8.90
2019-04-01T08:01:21.599Z,10.20
2019-04-01T08:02:21.586Z,8.80
2019-04-01T08:03:21.579Z,12.70
2019-04-01T08:04:21.611Z,9.50
2019-04-01T08:05:21.557Z,10.30
2019-04-01T08:06:21.580Z,9.70
2019-04-01T08:07:21.536Z,10.10
2019-04-01T08:08:21.527Z,8.50
2019-04-01T08:09:21.515Z,7.70
2019-04-01T08:10:21.542Z,6.80
2019-04-01T08:11:21.493Z,9.80
2019-04-01T08:12:21.490Z,8.40
2019-04-01T08:13:21.470Z,6.60
2019-04-01T08:14:21.474Z,7.50
2019-04-01T08:15:21.681Z,9.10
2019-04-01T08:16:21.459Z,7.30
2019-04-01T08:17:21.437Z,6.50
2019-04-01T08:18:21.428Z,5.60
2019-04-01T08:19:21.412Z,7.40
2019-04-01T08:20:21.427Z,10.80
2019-04-01T08:21:21.431Z,7.10
2019-04-01T08:22:21.383Z,6.70
2019-04-01T08:23:21.364Z,6.70
2019-04-01T08:24:21.360Z,8.80
2019-04-01T08:25:21.347Z,8.30
2019-04-01T08:26:21.352Z,6.70
2019-04-01T08:27:21.353Z,6.70
2019-04-01T08:28:23.800Z,6.80
2019-04-01T08:29:30.045Z,8.80
2019-04-01T08:30:22.291Z,5.80
2019-04-01T08:31:21.287Z,8.80
2019-04-01T08:32:21.275Z,9.80
2019-04-01T08:33:21.290Z,7.50
2019-04-01T08:34:21.248Z,6.70
2019-04-01T08:35:21.244Z,7.40
2019-04-01T08:36:21.232Z,7.20
2019-04-01T08:37:21.259Z,7.50
2019-04-01T08:38:21.218Z,7.00
2019-04-01T08:39:21.297Z,7.00
2019-04-01T08:40:21.191Z,7.30
2019-04-01T08:41:21.181Z,7.00
2019-04-01T08:42:21.162Z,7.60
2019-04-01T08:43:21.157Z,6.50
2019-04-01T08:44:21.146Z,6.50
2019-04-01T08:45:21.152Z,5.50
2019-04-01T08:46:21.127Z,6.80
2019-04-01T08:47:21.116Z,5.10
2019-04-01T08:48:21.120Z,5.80
2019-04-01T08:49:21.103Z,6.50
2019-04-01T08:50:21.122Z,5.30
2019-04-01T08:51:21.074Z,6.30
2019-04-01T08:52:21.078Z,5.20
2019-04-01T08:53:21.051Z,5.20
2019-04-01T08:54:21.042Z,5.80
2019-04-01T08:55:21.028Z,5.20
2019-04-01T08:56:21.060Z,7.30
2019-04-01T08:57:21.011Z,4.50
2019-04-01T08:58:21.011Z,6.50
2019-04-01T08:59:20.987Z,7.00
2019-04-01T09:00:20.973Z,5.00
2019-04-01T09:01:34.547Z,5.80
2019-04-01T09:02:22.020Z,5.90
2019-04-01T09:03:20.951Z,5.20
2019-04-01T09:04:20.941Z,6.50
2019-04-01T09:05:20.926Z,5.80
2019-04-01T09:06:20.915Z,5.40
2019-04-01T09:07:20.934Z,5.00
2019-04-01T09:08:20.901Z,5.70
2019-04-01T09:09:20.882Z,6.70
2019-04-01T09:10:20.886Z,6.40
2019-04-01T09:11:20.872Z,6.50
2019-04-01T09:12:20.862Z,5.40
2019-04-01T09:13:20.871Z,4.30
2019-04-01T09:14:20.846Z,5.70
2019-04-01T09:15:20.821Z,5.30
2019-04-01T09:16:20.819Z,6.30
2019-04-01T09:17:20.802Z,7.90
2019-04-01T09:18:20.794Z,6.00
2019-04-01T09:19:20.815Z,6.00
2019-04-01T09:20:20.770Z,5.20
2019-04-01T09:21:20.765Z,5.30
2019-04-01T09:22:20.752Z,4.10
2019-04-01T09:23:20.743Z,5.30
2019-04-01T09:24:20.725Z,6.60
2019-04-01T09:25:20.739Z,5.80
2019-04-01T09:26:20.706Z,9.20
2019-04-01T09:27:20.724Z,6.60
2019-04-01T09:28:20.691Z,5.20
2019-04-01T09:29:20.676Z,6.60
2019-04-01T09:30:20.674Z,8.80
2019-04-01T09:31:20.681Z,5.90
2019-04-01T09:32:20.641Z,8.90
2019-04-01T09:33:20.634Z,7.70
2019-04-01T09:34:20.618Z,8.00
2019-04-01T09:35:20.617Z,8.70
2019-04-01T09:36:20.608Z,5.80
2019-04-01T09:37:20.608Z,6.80
2019-04-01T09:38:20.578Z,6.60
2019-04-01T09:39:20.584Z,5.40
2019-04-01T09:40:20.559Z,4.30
2019-04-01T09:41:20.545Z,8.00
2019-04-01T09:42:20.556Z,6.30
2019-04-01T09:43:20.526Z,6.40
2019-04-01T09:44:20.511Z,6.90
2019-04-01T09:45:20.522Z,6.60
2019-04-01T09:46:20.491Z,7.40
2019-04-01T09:47:20.490Z,6.60
2019-04-01T09:48:23.556Z,8.70
2019-04-01T09:49:20.462Z,12.90
2019-04-01T09:50:20.464Z,5.80
2019-04-01T09:51:20.438Z,5.30
2019-04-01T09:52:20.428Z,7.00
2019-04-01T09:53:20.416Z,13.20
2019-04-01T09:54:20.431Z,12.70
2019-04-01T09:55:20.394Z,8.90
2019-04-01T09:56:20.395Z,7.30
2019-04-01T09:57:20.399Z,8.60
2019-04-01T09:58:20.360Z,7.90
2019-04-01T09:59:20.378Z,5.80
2019-04-01T10:00:20.359Z,5.20
2019-04-01T10:01:20.348Z,5.10
2019-04-01T10:02:31.191Z,6.50
2019-04-01T10:03:21.312Z,6.50
2019-04-01T10:04:20.293Z,8.70
2019-04-01T10:05:20.319Z,9.30
2019-04-01T10:06:20.276Z,9.90
2019-04-01T10:07:20.267Z,8.70
2019-04-01T10:08:20.255Z,9.00
2019-04-01T10:09:20.256Z,15.80
2019-04-01T10:10:20.281Z,12.10
2019-04-01T10:11:20.274Z,7.90
2019-04-01T10:12:20.256Z,6.40
2019-04-01T10:13:20.236Z,5.80
2019-04-01T10:14:20.217Z,6.90
2019-04-01T10:15:20.231Z,6.90
2019-04-01T10:16:20.285Z,7.30
2019-04-01T10:17:20.160Z,5.90
2019-04-01T10:18:20.157Z,8.30
2019-04-01T10:19:20.745Z,6.70
2019-04-01T10:20:20.239Z,5.10
2019-04-01T10:21:20.351Z,6.40
2019-04-01T10:22:20.174Z,6.10
2019-04-01T10:23:20.159Z,5.70
2019-04-01T10:24:20.153Z,6.30
2019-04-01T10:25:20.114Z,5.30
2019-04-01T10:26:20.200Z,5.50
2019-04-01T10:27:20.124Z,6.00
2019-04-01T10:28:20.092Z,5.30
2019-04-01T10:29:20.083Z,6.70
2019-04-01T10:30:20.031Z,7.50
2019-04-01T10:31:20.013Z,6.90
2019-04-01T10:32:20.092Z,4.50
2019-04-01T10:33:20.089Z,5.70
2019-04-01T10:34:20.030Z,7.20
2019-04-01T10:35:20.004Z,4.60
2019-04-01T10:36:20.053Z,7.20
2019-04-01T10:37:20.019Z,8.40
2019-04-01T10:38:19.998Z,9.30
2019-04-01T10:39:19.933Z,17.10
2019-04-01T10:40:20.089Z,9.60
2019-04-01T10:41:20.838Z,12.70
2019-04-01T10:42:19.899Z,17.90
2019-04-01T10:43:20.203Z,8.80
2019-04-01T10:44:19.894Z,5.60
2019-04-01T10:45:19.890Z,7.50
2019-04-01T10:46:19.846Z,5.20
2019-04-01T10:47:19.885Z,6.80
2019-04-01T10:48:19.872Z,7.90
2019-04-01T10:49:19.806Z,8.00
2019-04-01T10:50:19.874Z,5.40
2019-04-01T10:51:19.803Z,7.20
2019-04-01T10:52:19.797Z,6.50
2019-04-01T10:53:19.790Z,6.10
2019-04-01T10:54:19.788Z,7.60
2019-04-01T10:55:19.879Z,5.40
2019-04-01T10:56:19.821Z,5.30
2019-04-01T10:57:19.739Z,5.40
2019-04-01T10:58:19.841Z,7.60
2019-04-01T10:59:19.738Z,5.50
2019-04-01T11:00:19.771Z,6.10
2019-04-01T11:01:19.790Z,4.70
2019-04-01T11:02:19.733Z,4.60
2019-04-01T11:03:19.731Z,5.80
2019-04-01T11:04:19.689Z,6.90
2019-04-01T11:05:19.640Z,7.80
2019-04-01T11:06:19.659Z,4.80
2019-04-01T11:07:19.648Z,4.90
2019-04-01T11:08:19.622Z,5.50
2019-04-01T11:09:19.645Z,7.10
2019-04-01T11:10:19.584Z,4.60
2019-04-01T11:11:19.938Z,5.60
2019-04-01T11:12:19.584Z,5.30
2019-04-01T11:13:19.606Z,6.90
2019-04-01T11:14:19.531Z,5.50
2019-04-01T11:15:20.157Z,6.00
2019-04-01T11:16:19.508Z,5.60
2019-04-01T11:17:19.496Z,4.30
2019-04-01T11:18:19.503Z,4.70
2019-04-01T11:19:19.475Z,4.40
2019-04-01T11:20:19.470Z,6.40
2019-04-01T11:21:19.459Z,5.60
2019-04-01T11:22:19.477Z,4.90
2019-04-01T11:23:19.434Z,3.80
2019-04-01T11:24:19.436Z,5.90
2019-04-01T11:25:19.467Z,5.00
2019-04-01T11:26:19.511Z,5.50
2019-04-01T11:27:19.420Z,4.10
2019-04-01T11:28:19.396Z,6.70
2019-04-01T11:29:19.377Z,6.20
2019-04-01T11:30:19.359Z,5.20
2019-04-01T11:31:20.320Z,4.90
2019-04-01T11:32:19.503Z,8.80
2019-04-01T11:33:19.405Z,5.40
2019-04-01T11:34:19.451Z,9.90
2019-04-01T11:35:19.388Z,9.30
2019-04-01T11:36:19.314Z,8.30
2019-04-01T11:37:19.324Z,7.80
2019-04-01T11:38:19.271Z,6.40
2019-04-01T11:39:19.311Z,6.20
2019-04-01T11:40:19.384Z,6.50
2019-04-01T11:41:19.286Z,4.90
2019-04-01T11:42:19.248Z,5.60
2019-04-01T11:43:19.246Z,4.40
2019-04-01T11:44:19.212Z,6.90
2019-04-01T11:45:19.284Z,7.90
2019-04-01T11:46:19.210Z,5.80
2019-04-01T11:47:21.969Z,5.50
2019-04-01T11:48:19.179Z,6.00
2019-04-01T11:49:19.179Z,4.00
2019-04-01T11:50:19.139Z,5.50
2019-04-01T11:51:31.946Z,5.50
2019-04-01T11:52:20.120Z,6.00
2019-04-01T11:53:19.104Z,6.10
2019-04-01T11:54:19.099Z,4.90
2019-04-01T11:55:19.106Z,5.00
2019-04-01T11:56:19.078Z,4.70
2019-04-01T11:57:19.115Z,4.80
2019-04-01T11:58:19.053Z,3.90
2019-04-01T11:59:19.058Z,8.00
2019-04-01T12:00:19.057Z,4.10
2019-04-01T12:01:19.096Z,5.00
2019-04-01T12:02:19.008Z,4.00
2019-04-01T12:03:19.085Z,6.50
2019-04-01T12:04:18.991Z,6.50
2019-04-01T12:05:19.003Z,6.80
2019-04-01T12:06:18.969Z,5.30
2019-04-01T12:07:18.991Z,6.50
2019-04-01T12:08:18.947Z,6.00
2019-04-01T12:09:18.949Z,5.80
2019-04-01T12:10:18.932Z,6.30
2019-04-01T12:11:18.937Z,6.70
2019-04-01T12:12:23.878Z,6.10
2019-04-01T12:13:19.936Z,4.90
2019-04-01T12:14:18.892Z,7.40
2019-04-01T12:15:18.876Z,5.40
2019-04-01T12:16:18.905Z,4.70
2019-04-01T12:17:18.847Z,6.00
2019-04-01T12:18:18.855Z,5.90
2019-04-01T12:19:18.909Z,5.40
2019-04-01T12:20:18.815Z,5.10
2019-04-01T12:21:18.815Z,3.60
2019-04-01T12:22:19.938Z,5.80
2019-04-01T12:23:18.781Z,6.40
2019-04-01T12:24:18.795Z,7.00
2019-04-01T12:25:18.803Z,5.10
2019-04-01T12:26:18.778Z,5.40
2019-04-01T12:27:18.787Z,4.90
2019-04-01T12:28:18.742Z,6.80
2019-04-01T12:29:18.772Z,5.60
2019-04-01T12:30:18.733Z,7.50
2019-04-01T12:31:18.702Z,5.70
2019-04-01T12:32:18.688Z,6.60
2019-04-01T12:33:18.679Z,8.10
2019-04-01T12:34:18.667Z,5.10
2019-04-01T12:35:19.322Z,5.00
2019-04-01T12:36:19.279Z,5.70
2019-04-01T12:37:18.644Z,7.30
2019-04-01T12:38:18.642Z,4.90
2019-04-01T12:39:18.611Z,4.30
2019-04-01T12:40:18.678Z,5.00
2019-04-01T12:41:19.066Z,5.50
2019-04-01T12:42:19.740Z,8.30
2019-04-01T12:43:18.567Z,5.90
2019-04-01T12:44:18.557Z,5.10
2019-04-01T12:45:18.550Z,5.10
2019-04-01T12:46:18.537Z,6.10
2019-04-01T12:47:18.523Z,4.80
2019-04-01T12:48:18.547Z,5.90
2019-04-01T12:49:18.503Z,5.10
2019-04-01T12:50:18.523Z,7.20
2019-04-01T12:51:18.488Z,5.20
2019-04-01T12:52:18.474Z,5.80
2019-04-01T12:53:18.505Z,5.40
2019-04-01T12:54:18.478Z,6.00
2019-04-01T12:55:18.439Z,6.30
2019-04-01T12:56:18.434Z,3.40
2019-04-01T12:57:18.988Z,5.30
2019-04-01T12:58:18.454Z,5.50
2019-04-01T12:59:18.426Z,6.30
2019-04-01T13:00:18.384Z,7.60
2019-04-01T13:01:18.385Z,4.30
2019-04-01T13:02:18.550Z,4.60
2019-04-01T13:03:18.698Z,9.70
2019-04-01T13:04:18.337Z,7.00
2019-04-01T13:05:18.358Z,8.10
2019-04-01T13:06:18.317Z,4.10
2019-04-01T13:07:18.309Z,5.40
2019-04-01T13:08:18.301Z,6.60
2019-04-01T13:09:18.282Z,5.50
2019-04-01T13:10:18.281Z,3.20
2019-04-01T13:11:19.330Z,4.70
2019-04-01T13:12:18.337Z,6.80
2019-04-01T13:13:18.240Z,5.80
2019-04-01T13:14:18.250Z,5.80